Terminal Aerodrome Forecast
Issued by NWS Binghamton, NY

Home | Current Version | Previous Version | Text Only | Print | Product List | Glossary On
Versions: 1 2 3 4 5 6 7 8 9 10 11 12 13 14 15 16 17 18 19 20 21 22 23 24 25 26 27 28 29
979
FTUS41 KBGM 051738
TAFAVP
TAF
KAVP 051738Z 0518/0618 03008KT P6SM OVC025
      TEMPO 0520/0524 BKN035
     FM060000 04005KT P6SM BKN035
      TEMPO 0610/0613 -RA BKN025
     FM061300 01008KT 5SM -RA BR OVC025=

USA.gov is the U.S. government's official web portal to all federal, state and local government web resources and services.